Historique des stations

Station météo de Villegouin

Altitude de la station : 151 m







Données météorologiques pour le 18/05/2022
Date
Heure
Températures Humidité Point de rosée Vitesse
du vent
Direction Rafales Windchill Pression Pluviométrie
Cumul
Date
Heure
Températures Humidité Point de rosée Vitesse
du vent
Direction Rafales Windchill Pression Pluviométrie
Cumul
18/05/2022 14:1828.7 °C51 %17.8 °C5 km/hESE23 km/h28.9 1018 hPa-
18/05/2022 14:1528.7 °C47 %16.1 °C8 km/hENE23 km/h28.9 1018 hPa-
18/05/2022 14:0328.3 °C51 %17.2 °C10 km/hENE21 km/h28.3 1018 hPa-
18/05/2022 14:0028.3 °C51 %17.2 °C11 km/hENE19 km/h28.3 1018 hPa-
18/05/2022 13:4828.1 °C52 %17.2 °C5 km/hS18 km/h28.3 1018 hPa-
18/05/2022 13:4527.9 °C51 %16.7 °C2 km/hENE19 km/h27.8 1018 hPa-
18/05/2022 13:3327.7 °C54 %17.2 °C3 km/hENE19 km/h27.8 1019 hPa-
18/05/2022 13:2927.7 °C54 %17.2 °C19 km/hE19 km/h26.7 1019 hPa-
18/05/2022 13:1927.1 °C54 %17.2 °C10 km/hNE16 km/h27.2 1019 hPa-
18/05/2022 13:1526.9 °C56 %17.2 °C11 km/hE16 km/h27.2 1019 hPa-
18/05/2022 13:0326.9 °C56 %17.2 °C2 km/hENE16 km/h27.2 1019 hPa-
18/05/2022 13:0026.9 °C55 %17.2 °C6 km/hE16 km/h27.2 1019 hPa-
18/05/2022 12:4926.5 °C59 %17.8 °C11 km/hE14 km/h26.1 1019 hPa-
18/05/2022 12:4526.6 °C57 %17.2 °C3 km/hESE14 km/h26.7 1019 hPa-
18/05/2022 12:3326.2 °C59 %17.8 °C10 km/hENE14 km/h26.1 1019 hPa-
18/05/2022 12:3026.3 °C59 %17.8 °C8 km/hENE14 km/h26.1 1019 hPa-
18/05/2022 12:1826.1 °C61 %17.8 °C5 km/hE10 km/h26.1 1020 hPa-
18/05/2022 12:1526.0 °C61 %17.8 °C6 km/hENE14 km/h26.1 1020 hPa-
18/05/2022 12:0225.6 °C61 %17.2 °C3 km/hESE13 km/h25.6 1020 hPa-
18/05/2022 12:0025.6 °C62 %17.8 °C10 km/hNE14 km/h25.6 1020 hPa-
18/05/2022 11:4825.1 °C63 %17.8 °C6 km/hNE13 km/h25.0 1020 hPa-
18/05/2022 11:4525.0 °C63 %17.2 °C2 km/hE14 km/h25.0 1020 hPa-
18/05/2022 11:3424.6 °C65 %17.8 °C2 km/hSE10 km/h24.4 1020 hPa-
18/05/2022 11:3024.4 °C65 %17.2 °C8 km/hENE14 km/h24.4 1020 hPa-
18/05/2022 11:1824.2 °C64 %16.7 °C3 km/hE14 km/h24.4 1020 hPa-
18/05/2022 11:1524.2 °C64 %16.7 °C2 km/hE14 km/h24.4 1020 hPa-
18/05/2022 11:0323.9 °C66 %17.2 °C5 km/hNNE13 km/h23.9 1020 hPa-
18/05/2022 11:0023.8 °C66 %17.2 °C13 km/hE14 km/h23.3 1020 hPa-
18/05/2022 10:4923.3 °C67 %16.7 °C5 km/hNE10 km/h23.3 1020 hPa-
18/05/2022 10:4523.2 °C69 %17.2 °C6 km/hE14 km/h23.3 1020 hPa-
18/05/2022 10:3322.6 °C70 %16.7 °C2 km/hE10 km/h22.8 1020 hPa-
18/05/2022 10:3022.5 °C70 %16.7 °C3 km/hE14 km/h22.8 1020 hPa-
18/05/2022 10:1922.3 °C70 %16.7 °C6 km/hENE14 km/h22.2 1021 hPa-
18/05/2022 10:1522.3 °C70 %16.7 °C8 km/hNE14 km/h22.2 1021 hPa-
18/05/2022 10:0422.2 °C71 %16.7 °C3 km/hENE10 km/h22.2 1021 hPa-
18/05/2022 10:0022.1 °C72 %16.7 °C2 km/hESE11 km/h22.2 1021 hPa-
18/05/2022 09:4921.4 °C74 %16.7 °C2 km/hE10 km/h21.7 1021 hPa-
18/05/2022 09:4521.3 °C73 %16.1 °C2 km/hNE11 km/h21.1 1021 hPa-
18/05/2022 09:3421.2 °C73 %16.1 °C3 km/hENE6 km/h21.1 1021 hPa-
18/05/2022 09:3020.9 °C75 %16.1 °C3 km/hENE11 km/h21.1 1021 hPa-
18/05/2022 09:1920.4 °C74 %15.6 °C5 km/hNE11 km/h20.6 1021 hPa-
18/05/2022 09:1520.4 °C74 %15.6 °C6 km/hNE8 km/h20.6 1021 hPa-
18/05/2022 09:0419.9 °C77 %15.6 °C-NE5 km/h20.0 1021 hPa-
18/05/2022 09:0019.7 °C77 %15.6 °C-NNE8 km/h19.4 1021 hPa-
18/05/2022 08:4919.3 °C78 %15.6 °C2 km/hSSO5 km/h19.4 1021 hPa-
18/05/2022 08:4318.9 °C81 %15.6 °C-SSO8 km/h18.9 1021 hPa-
18/05/2022 08:3317.9 °C82 %15.0 °C---17.8 1021 hPa-
18/05/2022 08:3017.6 °C85 %15.0 °C-SSO8 km/h17.8 1021 hPa-
18/05/2022 08:1716.7 °C86 %14.4 °C---16.7 1021 hPa-
18/05/2022 08:1416.6 °C85 %13.9 °C-SSO8 km/h16.7 1021 hPa-
18/05/2022 08:0216.1 °C86 %13.9 °C---16.1 1021 hPa-
18/05/2022 08:0015.9 °C87 %13.9 °C-SSO8 km/h16.1 1021 hPa-
18/05/2022 07:4715.0 °C90 %13.3 °C---15.0 1021 hPa-
18/05/2022 07:4514.8 °C90 %13.3 °C-SSO8 km/h15.0 1021 hPa-
18/05/2022 07:3214.1 °C91 %12.8 °C---13.9 1021 hPa-
18/05/2022 07:3014.0 °C91 %12.8 °C-SSO8 km/h13.9 1021 hPa-
18/05/2022 07:1713.1 °C93 %12.2 °C---13.3 1021 hPa-
18/05/2022 07:1513.0 °C93 %12.2 °C-SSO8 km/h12.8 1021 hPa-
18/05/2022 07:0212.5 °C93 %11.7 °C---12.8 1021 hPa-
18/05/2022 07:0012.4 °C93 %11.7 °C-SSO8 km/h12.2 1021 hPa-
18/05/2022 06:4711.9 °C93 %11.1 °C---11.7 1021 hPa-
18/05/2022 06:4511.9 °C93 %11.1 °C-SSO8 km/h11.7 1021 hPa-
18/05/2022 06:3211.9 °C92 %10.6 °C---12.2 1021 hPa-
18/05/2022 06:3011.9 °C92 %10.6 °C-SSO8 km/h12.2 1021 hPa-
18/05/2022 06:1712.1 °C92 %11.1 °C---12.2 1021 hPa-
18/05/2022 06:1512.1 °C92 %11.1 °C-SSO8 km/h12.2 1021 hPa-
18/05/2022 06:0212.2 °C92 %11.1 °C---12.2 1021 hPa-
18/05/2022 06:0012.2 °C92 %11.1 °C-SSO8 km/h12.2 1021 hPa-
18/05/2022 05:4712.2 °C91 %11.1 °C---12.2 1020 hPa-
18/05/2022 05:4512.3 °C91 %11.1 °C-SSO8 km/h12.2 1020 hPa-
18/05/2022 05:3312.5 °C91 %11.1 °C---12.8 1020 hPa-
18/05/2022 05:3012.6 °C91 %11.1 °C-SSO8 km/h12.8 1020 hPa-
18/05/2022 05:1712.8 °C91 %11.7 °C---12.8 1020 hPa-
18/05/2022 05:1512.8 °C91 %11.7 °C-SSO8 km/h12.8 1020 hPa-
18/05/2022 05:0213.1 °C91 %11.7 °C---13.3 1020 hPa-
18/05/2022 05:0013.1 °C91 %11.7 °C-SSO8 km/h13.3 1020 hPa-
18/05/2022 04:4813.1 °C90 %11.7 °C---13.3 1020 hPa-
18/05/2022 04:4513.2 °C90 %11.7 °C-SSO8 km/h13.3 1020 hPa-
18/05/2022 04:3313.7 °C91 %12.2 °C---13.9 1020 hPa-
18/05/2022 04:3013.8 °C91 %12.2 °C-SSO8 km/h13.9 1020 hPa-
18/05/2022 04:1813.8 °C90 %12.2 °C---13.9 1020 hPa-
18/05/2022 04:1513.8 °C90 %12.2 °C-SSO8 km/h13.9 1020 hPa-
18/05/2022 04:0314.0 °C89 %12.2 °C---13.9 1020 hPa-
18/05/2022 04:0014.1 °C89 %12.2 °C-SSO8 km/h13.9 1020 hPa-
18/05/2022 03:4814.3 °C89 %12.8 °C---14.4 1020 hPa-
18/05/2022 03:4514.4 °C89 %12.8 °C-SSO8 km/h14.4 1020 hPa-
18/05/2022 03:3314.5 °C88 %12.8 °C---14.4 1020 hPa-
18/05/2022 03:3014.6 °C88 %12.8 °C-SSO8 km/h14.4 1020 hPa-
18/05/2022 03:1814.7 °C87 %12.8 °C---15.0 1020 hPa-
18/05/2022 03:1514.8 °C87 %12.8 °C-SSO8 km/h15.0 1020 hPa-
18/05/2022 03:0315.1 °C87 %12.8 °C---15.0 1020 hPa-
18/05/2022 03:0015.1 °C86 %12.8 °C-SSO8 km/h15.0 1020 hPa-
18/05/2022 02:4815.3 °C85 %12.8 °C---15.6 1020 hPa-
18/05/2022 02:4515.4 °C85 %12.8 °C-SSO8 km/h15.6 1020 hPa-
18/05/2022 02:3315.8 °C83 %12.8 °C---16.1 1020 hPa-
18/05/2022 02:3016.0 °C83 %13.3 °C-SSO8 km/h16.1 1020 hPa-
18/05/2022 02:1816.3 °C83 %13.3 °C---16.1 1020 hPa-
18/05/2022 02:1516.4 °C82 %13.3 °C-SSO8 km/h16.7 1020 hPa-
18/05/2022 02:0316.8 °C80 %13.3 °C-SSO2 km/h16.7 1020 hPa-
18/05/2022 02:0016.9 °C79 %13.3 °C-SSO8 km/h17.2 1020 hPa-
18/05/2022 01:4817.5 °C79 %13.9 °C---17.8 1020 hPa-
18/05/2022 01:4517.6 °C79 %13.9 °C-SSO8 km/h17.8 1020 hPa-
18/05/2022 01:3318.2 °C76 %13.9 °C-SSO2 km/h18.3 1020 hPa-
18/05/2022 01:2918.4 °C75 %13.9 °C-SSO8 km/h18.3 1020 hPa-
18/05/2022 01:1718.9 °C76 %14.4 °C---18.9 1019 hPa-
18/05/2022 01:1419.0 °C75 %14.4 °C-SSO8 km/h18.9 1020 hPa-
18/05/2022 01:0219.5 °C74 %15.0 °C---19.4 1020 hPa-
18/05/2022 01:0019.6 °C72 %14.4 °C-SSO8 km/h19.4 1020 hPa-
18/05/2022 00:4720.0 °C71 %14.4 °C-SSO2 km/h20.0 1019 hPa-
18/05/2022 00:4520.1 °C71 %14.4 °C-SSO8 km/h20.0 1019 hPa-
18/05/2022 00:3220.3 °C70 %14.4 °C-SSO3 km/h20.6 1019 hPa-
18/05/2022 00:3020.3 °C70 %14.4 °C-SSO8 km/h20.6 1019 hPa-
18/05/2022 00:1720.7 °C69 %15.0 °C2 km/hSSO5 km/h20.6 1019 hPa-
18/05/2022 00:1520.7 °C69 %15.0 °C-SSO8 km/h20.6 1019 hPa-
18/05/2022 00:0321.2 °C68 %15.0 °C2 km/hSSO8 km/h21.1 1019 hPa-
18/05/2022 00:0021.2 °C68 %15.0 °C2 km/hSO3 km/h21.1 1019 hPa-


Minima :

Température : 11.9 °C
Humidité : 47 %
Point de rosée : 10.6 °C
Vent moyen : 2 km/h
Windchill : 11.7
Pression atm. : 1018 hPa
Maxima :

Température : 28.7 °C
Humidité : 93 %
Point de rosée : 17.8 °C
Vent moyen : 19 km/h
Windchill : 28.9
Pression atm. : 1021 hPa
Rafales max : 23 km/h
Cumul de pluie sur 24H : 0 mm

Villegouin est une commune du département Indre (36).
La station météorologique du réseau de l'association la plus proche de Villegouin est celle de Levroux



Icône Facebook Association Météo Centre Icône Twitter Association Météo Centre Icône Chaîne Youtube Association Météo Centre Icône contact Association Météo Centre Icône Insta Association Météo Centre